Time;durP1;ratioP1;P1;durP2;ratioP2;P2;SDS_P1;SDS_P2;PMS_P1;PMS_P2;Temp;Humidity;BMP_temperature;BMP_pressure;BME280_temperature;BME280_humidity;BME280_pressure;Samples;Min_cycle;Max_cycle;Signal;HPM_P1;HPM_P2
2023/07/07 00:00:21;;;;;;;6.10;5.70;;;;;;;25.08;51.99;95090.22;6180485;28;109181;-65
2023/07/07 00:03:24;;;;;;;6.73;6.13;;;;;;;25.09;51.41;95081.84;6185933;28;109056;-63
2023/07/07 00:06:28;;;;;;;6.80;5.33;;;;;;;25.06;51.87;95093.22;6185852;28;109038;-70
2023/07/07 00:09:32;;;;;;;5.93;5.53;;;;;;;25.11;51.64;95099.47;6176728;28;108895;-66
2023/07/07 00:12:38;;;;;;;6.90;6.30;;;;;;;25.06;51.83;95093.22;6187798;28;111033;-66
2023/07/07 00:15:44;;;;;;;5.90;5.50;;;;;;;25.03;51.61;95103.75;6169115;28;109529;-66
2023/07/07 00:18:47;;;;;;;7.33;6.63;;;;;;;25.01;51.93;95096.06;6162335;28;109280;-66
2023/07/07 00:21:58;;;;;;;6.50;5.80;;;;;;;24.90;52.18;95086.06;6164268;28;109849;-66
2023/07/07 00:25:01;;;;;;;6.40;5.80;;;;;;;24.89;51.92;95084.47;6186700;28;109294;-66
2023/07/07 00:28:06;;;;;;;6.00;5.50;;;;;;;24.88;52.13;95082.91;6176907;28;109310;-66
2023/07/07 00:31:09;;;;;;;6.53;6.03;;;;;;;24.88;52.21;95091.72;6168241;28;109053;-66
2023/07/07 00:34:12;;;;;;;6.27;5.67;;;;;;;24.90;52.16;95094.09;6159521;28;109175;-66
2023/07/07 00:37:16;;;;;;;5.80;5.30;;;;;;;24.95;51.95;95096.56;6173798;28;109047;-66
2023/07/07 00:40:20;;;;;;;6.67;6.10;;;;;;;24.96;52.12;95092.78;6173419;28;109873;-66
2023/07/07 00:43:24;;;;;;;6.13;5.73;;;;;;;24.89;52.26;95092.50;6167531;28;109057;-69
2023/07/07 00:46:27;;;;;;;6.27;5.87;;;;;;;24.88;52.00;95091.72;6190621;28;110068;-66
2023/07/07 00:49:31;;;;;;;6.10;5.60;;;;;;;24.76;52.41;95091.63;6200796;28;109232;-66
2023/07/07 00:52:36;;;;;;;6.73;6.20;;;;;;;24.94;51.91;95086.97;6204863;28;109061;-66
2023/07/07 00:55:42;;;;;;;7.00;6.40;;;;;;;24.93;52.00;95099.56;6154688;28;109239;-66
2023/07/07 00:58:47;;;;;;;6.30;5.70;;;;;;;24.90;52.00;95100.22;6161151;28;109720;-66
2023/07/07 01:01:56;;;;;;;6.60;6.10;;;;;;;24.97;51.57;95105.06;6175176;28;109098;-65
2023/07/07 01:05:03;;;;;;;6.30;5.80;;;;;;;24.91;51.92;95107.16;6174706;28;109027;-65
2023/07/07 01:08:07;;;;;;;6.47;5.97;;;;;;;24.91;52.11;95099.13;6155007;28;109212;-65
2023/07/07 01:11:10;;;;;;;6.40;5.93;;;;;;;24.78;52.18;95102.78;6174648;28;109173;-65
2023/07/07 01:14:19;;;;;;;6.13;5.60;;;;;;;24.81;52.37;95104.03;6172873;28;109355;-65
2023/07/07 01:17:31;;;;;;;7.20;6.00;;;;;;;24.81;52.01;95104.81;6156132;28;109222;-68
2023/07/07 01:20:42;;;;;;;6.60;6.10;;;;;;;24.77;52.03;95101.22;6178480;28;111532;-65
2023/07/07 01:24:24;;;;;;;7.00;6.30;;;;;;;24.76;52.22;95105.00;6180958;28;109063;-65
2023/07/07 01:27:53;;;;;;;6.17;5.73;;;;;;;24.62;52.26;95107.06;6160603;28;109660;-64
2023/07/07 01:31:02;;;;;;;6.40;5.87;;;;;;;24.70;52.09;95104.41;6150684;28;109084;-64
2023/07/07 01:34:05;;;;;;;6.33;5.83;;;;;;;24.60;52.18;95101.25;6179022;28;109164;-64
2023/07/07 01:37:09;;;;;;;6.77;6.17;;;;;;;24.57;52.13;95109.91;6182607;28;109831;-64
2023/07/07 01:40:13;;;;;;;7.33;5.87;;;;;;;24.73;51.55;95102.97;6154471;28;109186;-65
2023/07/07 01:43:25;;;;;;;6.80;6.30;;;;;;;24.65;51.96;95107.19;6175927;28;109068;-64
2023/07/07 01:46:31;;;;;;;6.33;5.93;;;;;;;24.66;51.89;95108.78;6174705;28;109605;-64
2023/07/07 01:49:41;;;;;;;6.10;5.50;;;;;;;24.56;52.06;95101.13;6183499;28;110314;-64
2023/07/07 01:52:48;;;;;;;6.40;5.90;;;;;;;24.52;51.92;95100.16;6168953;28;109359;-64
2023/07/07 01:55:55;;;;;;;6.50;5.90;;;;;;;24.46;52.40;95104.91;6179473;28;109153;-64
2023/07/07 01:58:59;;;;;;;6.23;5.37;;;;;;;24.49;52.03;95106.94;6166623;28;109416;-66
2023/07/07 02:02:04;;;;;;;6.17;5.60;;;;;;;24.49;52.10;95090.09;6182110;28;109064;-66
2023/07/07 02:05:09;;;;;;;6.00;5.60;;;;;;;24.60;51.87;95096.69;6162779;28;110285;-67
2023/07/07 02:08:12;;;;;;;6.60;6.20;;;;;;;24.62;51.88;95101.72;6182270;28;109038;-65
2023/07/07 02:11:15;;;;;;;6.50;6.00;;;;;;;24.73;51.37;95093.03;6169723;28;109317;-65
2023/07/07 02:14:18;;;;;;;6.07;5.57;;;;;;;24.71;51.26;95091.81;6165473;28;111019;-66
2023/07/07 02:17:24;;;;;;;8.87;6.60;;;;;;;24.78;51.26;95087.50;6180524;28;109300;-64
2023/07/07 02:20:27;;;;;;;6.70;6.10;;;;;;;24.66;51.55;95089.25;6167409;28;109263;-64
2023/07/07 02:23:30;;;;;;;6.50;5.90;;;;;;;24.67;51.76;95090.81;6183808;28;110982;-64
2023/07/07 02:26:34;;;;;;;6.40;5.80;;;;;;;24.76;51.36;95094.28;6177145;28;109095;-65
2023/07/07 02:29:37;;;;;;;6.80;6.30;;;;;;;24.74;51.13;95101.88;6188288;28;109045;-72
2023/07/07 02:32:41;;;;;;;6.70;6.13;;;;;;;24.67;51.67;95107.66;6188092;28;109327;-71
2023/07/07 02:35:48;;;;;;;6.90;6.40;;;;;;;24.73;51.25;95100.28;6188245;28;109348;-70
2023/07/07 02:38:53;;;;;;;7.80;7.20;;;;;;;24.77;51.38;95107.34;6177901;28;109156;-71
2023/07/07 02:41:56;;;;;;;7.40;6.90;;;;;;;24.76;51.66;95111.13;6166644;28;109031;-70
2023/07/07 02:44:59;;;;;;;7.00;6.40;;;;;;;24.70;51.43;95107.06;6163724;28;109274;-70
2023/07/07 02:48:05;;;;;;;7.83;6.23;;;;;;;24.62;51.88;95099.03;6165504;28;109409;-69
2023/07/07 02:51:08;;;;;;;6.87;6.37;;;;;;;24.64;51.59;95104.84;6180457;28;109323;-69
2023/07/07 02:54:11;;;;;;;7.10;6.60;;;;;;;24.61;51.51;95106.28;6180847;28;109407;-70
2023/07/07 02:57:14;;;;;;;6.20;5.80;;;;;;;24.58;51.75;95100.78;6183205;28;109456;-69
2023/07/07 03:00:18;;;;;;;7.57;6.97;;;;;;;24.69;51.32;95104.69;6176259;28;109015;-70
2023/07/07 03:03:26;;;;;;;11.87;10.87;;;;;;;24.74;51.35;95104.53;6194432;28;109161;-70
2023/07/07 03:06:30;;;;;;;13.10;12.00;;;;;;;24.81;51.37;95115.53;6168589;28;109573;-69
2023/07/07 03:09:33;;;;;;;10.00;9.10;;;;;;;24.83;51.58;95120.53;6163491;28;109326;-69
2023/07/07 03:12:36;;;;;;;8.47;7.60;;;;;;;24.55;51.65;95117.47;6154080;28;109041;-70
2023/07/07 03:15:40;;;;;;;7.87;7.20;;;;;;;24.46;52.04;95115.59;6184615;28;109310;-69
2023/07/07 03:18:44;;;;;;;8.70;7.93;;;;;;;24.41;52.30;95110.44;6185190;28;109337;-68
2023/07/07 03:21:47;;;;;;;9.07;7.73;;;;;;;24.48;51.87;95115.28;6172369;28;109173;-68
2023/07/07 03:24:51;;;;;;;8.73;8.03;;;;;;;24.59;51.79;95110.38;6196243;28;109133;-69
2023/07/07 03:27:54;;;;;;;8.37;7.57;;;;;;;24.70;51.26;95117.78;6179183;28;109224;-70
2023/07/07 03:30:58;;;;;;;9.77;8.77;;;;;;;24.64;51.75;95112.88;6162482;28;109094;-75
2023/07/07 03:34:05;;;;;;;10.20;9.30;;;;;;;24.71;51.27;95108.66;6172963;28;109399;-69
2023/07/07 03:37:09;;;;;;;11.20;10.30;;;;;;;24.75;51.57;95116.81;6187142;28;109176;-70
2023/07/07 03:40:12;;;;;;;10.27;9.40;;;;;;;24.70;51.43;95115.09;6163448;28;109080;-69
2023/07/07 03:43:18;;;;;;;11.23;10.20;;;;;;;24.70;52.05;95111.66;6182856;28;112053;-69
2023/07/07 03:46:23;;;;;;;18.97;17.27;;;;;;;24.70;52.01;95117.78;6176769;28;109475;-70
2023/07/07 03:49:27;;;;;;;12.30;11.10;;;;;;;24.63;52.14;95112.09;6184757;28;109311;-70
2023/07/07 03:52:30;;;;;;;11.00;10.00;;;;;;;24.62;52.32;95118.56;6200247;28;110354;-69
2023/07/07 03:55:33;;;;;;;9.80;8.83;;;;;;;24.66;51.72;95114.13;6193439;28;108725;-71
2023/07/07 03:58:37;;;;;;;10.47;9.77;;;;;;;24.60;51.93;95111.94;6160016;28;108911;-70
2023/07/07 04:01:40;;;;;;;10.07;9.27;;;;;;;24.73;51.85;95116.34;6176561;28;110069;-70
2023/07/07 04:04:44;;;;;;;11.03;10.03;;;;;;;24.71;51.76;95114.00;6173510;28;109222;-70
2023/07/07 04:07:48;;;;;;;10.23;9.23;;;;;;;24.76;52.43;95115.72;6192690;28;109061;-68
2023/07/07 04:10:59;;;;;;;9.60;8.80;;;;;;;24.84;52.25;95116.75;6207241;28;109092;-69
2023/07/07 04:14:03;;;;;;;9.20;8.30;;;;;;;24.87;52.73;95116.94;6204154;28;108871;-69
2023/07/07 04:17:06;;;;;;;10.00;9.20;;;;;;;24.90;52.07;95120.84;6179895;28;109079;-71
2023/07/07 04:20:12;;;;;;;10.17;9.30;;;;;;;24.92;51.88;95129.34;6175374;28;111105;-71
2023/07/07 04:23:15;;;;;;;11.70;9.43;;;;;;;24.91;52.23;95128.56;6183945;28;109067;-68
2023/07/07 04:26:19;;;;;;;10.20;9.20;;;;;;;24.90;52.65;95129.66;6174415;28;109816;-68
2023/07/07 04:29:23;;;;;;;10.83;9.60;;;;;;;24.96;52.29;95125.69;6160790;28;109305;-68
2023/07/07 04:32:26;;;;;;;10.00;9.20;;;;;;;24.89;52.19;95124.63;6150623;28;109357;-70
2023/07/07 04:35:30;;;;;;;9.60;8.70;;;;;;;24.97;52.58;95131.84;6161231;28;108749;-67
2023/07/07 04:38:34;;;;;;;12.70;8.73;;;;;;;24.91;52.57;95127.78;6161991;28;109084;-76
2023/07/07 04:41:37;;;;;;;9.90;9.10;;;;;;;24.79;52.86;95128.44;6156332;28;108957;-72
2023/07/07 04:44:40;;;;;;;9.70;8.80;;;;;;;24.81;52.46;95128.13;6156486;28;109262;-71
2023/07/07 04:47:44;;;;;;;9.60;8.70;;;;;;;24.79;53.00;95131.13;6161759;28;109618;-68
2023/07/07 04:50:48;;;;;;;12.00;8.40;;;;;;;24.79;52.55;95131.91;6161994;28;110041;-69
2023/07/07 04:53:51;;;;;;;9.17;8.37;;;;;;;24.81;52.25;95134.25;6150759;28;109161;-70
2023/07/07 04:56:55;;;;;;;9.40;8.43;;;;;;;24.85;52.51;95143.22;6161390;28;109047;-70
2023/07/07 04:59:58;;;;;;;9.33;8.53;;;;;;;24.87;52.47;95141.03;6160502;28;109287;-70
2023/07/07 05:03:01;;;;;;;8.23;7.07;;;;;;;24.91;52.26;95146.50;6160600;28;109196;-69
2023/07/07 05:06:06;;;;;;;9.13;8.23;;;;;;;24.91;52.71;95144.63;6150641;28;109033;-70
2023/07/07 05:09:12;;;;;;;9.30;8.60;;;;;;;24.93;52.76;95153.13;6161173;28;109059;-70
2023/07/07 05:12:16;;;;;;;9.10;8.27;;;;;;;24.96;52.83;95140.97;6161524;28;110170;-69
2023/07/07 05:15:19;;;;;;;10.00;9.07;;;;;;;24.99;52.66;95133.06;6158767;28;109147;-67
2023/07/07 05:18:22;;;;;;;9.40;8.60;;;;;;;25.01;53.00;95144.25;6153388;28;109056;-70
2023/07/07 05:21:27;;;;;;;9.77;9.00;;;;;;;25.04;52.83;95138.28;6164880;28;109362;-70
2023/07/07 05:24:30;;;;;;;11.30;10.40;;;;;;;25.03;53.21;95133.22;6210359;28;109093;-70
2023/07/07 05:27:33;;;;;;;11.90;10.87;;;;;;;25.07;53.33;95136.84;6203852;28;109750;-69
2023/07/07 05:30:36;;;;;;;12.73;11.63;;;;;;;25.03;53.95;95142.06;6211986;28;109177;-71
2023/07/07 05:33:40;;;;;;;14.40;13.20;;;;;;;25.04;53.90;95145.53;6193830;28;109830;-69
2023/07/07 05:36:44;;;;;;;15.20;13.87;;;;;;;25.08;53.92;95143.75;6194081;28;111683;-71
2023/07/07 05:39:48;;;;;;;16.90;15.30;;;;;;;25.12;54.14;95143.91;6182796;28;109850;-70
2023/07/07 05:42:52;;;;;;;16.57;15.27;;;;;;;25.13;54.07;95145.47;6193979;28;110949;-72
2023/07/07 05:45:56;;;;;;;17.93;16.30;;;;;;;25.17;54.08;95149.06;6193338;28;109386;-72
2023/07/07 05:48:59;;;;;;;15.13;13.83;;;;;;;25.25;53.57;95150.94;6193922;28;110350;-70
2023/07/07 05:52:05;;;;;;;13.73;12.70;;;;;;;25.28;53.07;95147.59;6188864;28;109732;-70
2023/07/07 05:55:20;;;;;;;16.00;14.70;;;;;;;25.29;53.17;95149.94;6218017;28;110029;-71
2023/07/07 05:58:23;;;;;;;17.87;16.47;;;;;;;25.31;53.55;95153.09;6217884;28;108735;-61
2023/07/07 06:01:26;;;;;;;15.50;14.30;;;;;;;25.35;53.10;95146.00;6210193;28;109690;-63
2023/07/07 06:04:30;;;;;;;17.10;15.40;;;;;;;25.44;52.63;95156.69;6215242;28;109427;-61
2023/07/07 06:07:34;;;;;;;16.50;15.30;;;;;;;25.45;52.88;95158.25;6217455;28;109038;-62
2023/07/07 06:10:37;;;;;;;17.83;16.50;;;;;;;25.49;52.88;95163.75;6217597;28;109378;-62
2023/07/07 06:13:40;;;;;;;17.30;16.00;;;;;;;25.53;53.20;95160.06;6208229;28;109012;-62
2023/07/07 06:16:43;;;;;;;18.73;17.30;;;;;;;25.49;53.05;95158.38;6217521;28;109353;-62
2023/07/07 06:19:46;;;;;;;18.00;16.70;;;;;;;25.49;52.73;95153.03;6217838;28;110386;-62
2023/07/07 06:22:53;;;;;;;18.40;17.00;;;;;;;25.49;52.97;95158.38;6204955;28;109008;-61
2023/07/07 06:25:56;;;;;;;18.30;17.00;;;;;;;25.55;53.21;95159.78;6183724;28;109611;-61
2023/07/07 06:28:59;;;;;;;19.80;18.20;;;;;;;25.60;52.97;95157.69;6193100;28;109137;-62
2023/07/07 06:32:03;;;;;;;19.20;17.80;;;;;;;25.66;52.97;95160.94;6191825;28;109052;-62
2023/07/07 06:35:06;;;;;;;19.67;18.10;;;;;;;25.76;52.75;95160.56;6187771;28;109398;-62
2023/07/07 06:38:11;;;;;;;18.50;17.00;;;;;;;25.78;52.87;95158.34;6186307;28;109051;-62
2023/07/07 06:41:18;;;;;;;19.13;17.70;;;;;;;25.76;52.49;95157.13;6188340;28;108761;-62
2023/07/07 06:44:21;;;;;;;19.87;18.27;;;;;;;25.80;52.71;95158.03;6188791;28;109044;-62
2023/07/07 06:47:25;;;;;;;18.40;17.00;;;;;;;25.83;52.58;95160.81;6179452;28;109623;-62
2023/07/07 06:50:30;;;;;;;19.20;17.67;;;;;;;25.79;52.54;95159.13;6188800;28;109033;-62
2023/07/07 06:53:35;;;;;;;19.73;18.07;;;;;;;25.79;52.74;95176.00;6188655;28;109070;-62
2023/07/07 06:56:38;;;;;;;18.73;17.23;;;;;;;25.80;52.59;95174.09;6188383;28;109321;-62
2023/07/07 06:59:41;;;;;;;18.77;17.33;;;;;;;25.80;52.92;95182.94;6178544;28;109009;-62
2023/07/07 07:02:45;;;;;;;18.80;17.20;;;;;;;25.84;52.46;95170.44;6186946;28;109145;-62
2023/07/07 07:05:49;;;;;;;19.17;17.57;;;;;;;25.85;52.26;95182.72;6188353;28;110159;-62
2023/07/07 07:08:54;;;;;;;19.10;17.60;;;;;;;25.87;52.75;95177.03;6187815;28;109333;-64
2023/07/07 07:11:57;;;;;;;17.87;16.47;;;;;;;25.89;52.36;95186.34;6191943;28;110004;-64
2023/07/07 07:15:00;;;;;;;19.10;17.70;;;;;;;25.88;52.19;95189.38;6212411;28;109027;-64
2023/07/07 07:18:04;;;;;;;18.80;17.30;;;;;;;25.84;52.07;95185.75;6212877;28;109957;-64
2023/07/07 07:21:07;;;;;;;17.60;16.20;;;;;;;25.88;52.42;95197.41;6204757;28;108952;-68
2023/07/07 07:24:12;;;;;;;18.90;17.50;;;;;;;25.89;52.55;95188.25;6210415;28;109058;-69
2023/07/07 07:27:15;;;;;;;18.07;16.57;;;;;;;25.89;52.66;95193.63;6187712;28;109062;-68
2023/07/07 07:30:18;;;;;;;18.00;16.70;;;;;;;25.89;52.51;95196.28;6187805;28;109581;-69
2023/07/07 07:33:22;;;;;;;17.33;16.03;;;;;;;25.87;52.62;95198.50;6176463;28;109063;-69
2023/07/07 07:36:25;;;;;;;18.63;17.23;;;;;;;25.90;52.03;95208.59;6187670;28;109069;-70
2023/07/07 07:39:30;;;;;;;17.50;16.20;;;;;;;25.90;52.50;95211.28;6187434;28;109170;-70
2023/07/07 07:42:34;;;;;;;18.00;16.60;;;;;;;25.92;51.94;95217.88;6187180;28;109055;-68
2023/07/07 07:45:38;;;;;;;18.23;16.70;;;;;;;25.90;52.43;95216.63;6176828;28;109165;-69
2023/07/07 07:48:41;;;;;;;17.03;15.83;;;;;;;25.94;52.24;95222.91;6187656;28;109271;-71
2023/07/07 07:51:44;;;;;;;17.40;16.00;;;;;;;26.01;52.10;95223.19;6189891;28;109071;-69
2023/07/07 07:54:49;;;;;;;16.50;15.20;;;;;;;26.04;52.24;95222.53;6206600;28;109229;-69
2023/07/07 07:57:52;;;;;;;16.87;15.57;;;;;;;26.00;51.89;95221.63;6205799;28;109393;-69
2023/07/07 08:00:55;;;;;;;17.03;15.60;;;;;;;26.01;52.33;95223.19;6211317;28;109088;-70
2023/07/07 08:03:58;;;;;;;17.20;15.80;;;;;;;26.01;51.95;95223.19;6210167;28;109666;-70
2023/07/07 08:07:02;;;;;;;17.30;16.00;;;;;;;26.04;51.96;95229.78;6201064;28;109070;-70
2023/07/07 08:10:08;;;;;;;17.37;16.07;;;;;;;26.13;52.53;95234.00;6211891;28;109566;-71
2023/07/07 08:13:11;;;;;;;16.57;15.37;;;;;;;26.10;52.35;95236.56;6211206;28;109376;-71
2023/07/07 08:16:14;;;;;;;16.60;15.30;;;;;;;26.10;51.92;95241.91;6211714;28;109006;-70
2023/07/07 08:19:18;;;;;;;17.40;15.97;;;;;;;26.13;51.60;95238.59;6200969;28;109115;-71
2023/07/07 08:22:24;;;;;;;16.30;15.00;;;;;;;26.16;52.04;95237.94;6202998;28;109141;-70
2023/07/07 08:25:32;;;;;;;16.83;15.57;;;;;;;26.15;52.37;95236.34;6187043;28;109039;-70
2023/07/07 08:28:36;;;;;;;16.13;14.90;;;;;;;26.15;51.90;95241.72;6183722;28;109214;-69
2023/07/07 08:31:50;;;;;;;16.50;15.23;;;;;;;26.18;52.25;95228.44;6180772;28;111842;-70
2023/07/07 08:34:54;;;;;;;16.73;15.43;;;;;;;26.20;51.84;95231.56;6185295;28;109082;-70
2023/07/07 08:37:57;;;;;;;16.57;15.27;;;;;;;26.25;51.55;95234.06;6186256;28;109284;-69
2023/07/07 08:41:02;;;;;;;15.80;14.60;;;;;;;26.30;51.68;95227.72;6177260;28;109472;-68
2023/07/07 08:44:06;;;;;;;17.07;15.67;;;;;;;26.31;51.32;95225.81;6186236;28;109186;-69
2023/07/07 08:47:15;;;;;;;16.00;14.80;;;;;;;26.36;51.33;95212.97;6186582;28;109290;-69
2023/07/07 08:50:25;;;;;;;17.63;16.23;;;;;;;26.39;51.98;95214.25;6186677;28;108769;-69
2023/07/07 08:53:45;;;;;;;18.33;16.93;;;;;;;26.42;51.91;95209.00;6193625;28;108971;-69
2023/07/07 08:56:55;;;;;;;18.20;16.90;;;;;;;26.39;51.78;95204.28;6210737;28;109250;-69
2023/07/07 09:00:04;;;;;;;20.07;18.50;;;;;;;26.39;51.59;95214.25;6210475;28;109089;-70
2023/07/07 09:03:25;;;;;;;19.93;18.33;;;;;;;26.34;52.14;95207.16;6204695;28;109176;-68
2023/07/07 09:06:41;;;;;;;19.40;18.00;;;;;;;26.40;51.84;95205.06;6209208;28;110156;-69
2023/07/07 09:10:07;;;;;;;19.83;18.33;;;;;;;26.39;51.52;95206.19;6210244;28;109845;-71
2023/07/07 09:13:23;;;;;;;20.10;18.50;;;;;;;26.44;51.93;95203.31;6210551;28;110130;-69
2023/07/07 09:16:31;;;;;;;18.40;16.93;;;;;;;26.43;51.85;95201.72;6200327;28;109211;-71
2023/07/07 09:19:39;;;;;;;19.67;18.07;;;;;;;26.42;51.82;95205.53;6210170;28;109399;-69
2023/07/07 09:22:47;;;;;;;18.03;16.57;;;;;;;26.45;51.64;95199.50;6199980;28;110054;-69
2023/07/07 09:25:56;;;;;;;18.43;16.97;;;;;;;26.51;51.87;95192.81;6180122;28;109031;-70
2023/07/07 09:29:04;;;;;;;18.13;16.73;;;;;;;26.53;51.54;95196.72;6182026;28;110985;-69
2023/07/07 09:32:11;;;;;;;17.17;15.77;;;;;;;26.55;51.53;95188.38;6185565;28;108836;-69
2023/07/07 09:35:16;;;;;;;17.03;15.63;;;;;;;26.56;51.13;95195.31;6185529;28;109090;-68
2023/07/07 09:38:27;;;;;;;17.17;15.77;;;;;;;26.57;51.55;95199.56;6174458;28;109377;-69
2023/07/07 09:41:40;;;;;;;16.37;15.10;;;;;;;26.60;51.46;95196.19;6185691;28;109071;-72
2023/07/07 09:45:00;;;;;;;16.57;15.20;;;;;;;26.57;50.76;95203.03;6185541;28;110304;-70
2023/07/07 09:48:15;;;;;;;15.77;14.50;;;;;;;26.60;50.84;95198.88;6183389;28;109505;-65
2023/07/07 09:51:30;;;;;;;15.37;14.27;;;;;;;26.61;51.37;95195.09;6179450;28;109170;-73
2023/07/07 09:54:34;;;;;;;14.80;13.70;;;;;;;26.57;51.48;95191.50;6185227;28;108754;-72
2023/07/07 09:57:42;;;;;;;16.33;15.13;;;;;;;26.57;51.42;95178.06;6184787;28;109460;-73
2023/07/07 10:00:51;;;;;;;15.83;14.73;;;;;;;26.55;51.32;95183.78;6174693;28;109149;-74
2023/07/07 10:03:56;;;;;;;14.63;13.43;;;;;;;26.53;50.87;95190.56;6184579;28;109144;-73
2023/07/07 10:07:03;;;;;;;14.77;13.57;;;;;;;26.53;51.03;95177.16;6184958;28;109067;-72
2023/07/07 10:10:08;;;;;;;14.83;13.53;;;;;;;26.50;50.90;95186.66;6184186;28;109377;-73
2023/07/07 10:13:14;;;;;;;15.20;14.10;;;;;;;26.49;51.25;95186.97;6174241;28;110049;-73
2023/07/07 10:16:32;;;;;;;14.50;13.40;;;;;;;26.44;50.91;95187.97;6189064;28;109012;-74
2023/07/07 10:19:41;;;;;;;14.63;13.43;;;;;;;26.44;51.26;95187.19;6188899;28;109683;-74
2023/07/07 10:22:44;;;;;;;14.20;13.10;;;;;;;26.43;51.37;95180.25;6194519;28;109313;-73
2023/07/07 10:25:48;;;;;;;13.37;12.40;;;;;;;26.41;50.66;95182.50;6209032;28;109121;-73
2023/07/07 10:28:55;;;;;;;13.90;12.90;;;;;;;26.41;51.03;95175.22;6213488;28;109178;-73
2023/07/07 10:31:59;;;;;;;13.90;12.83;;;;;;;26.39;51.31;95171.31;6213517;28;109025;-73
2023/07/07 10:35:09;;;;;;;13.93;12.70;;;;;;;26.41;51.37;95166.41;6203645;28;109651;-74
2023/07/07 10:38:13;;;;;;;13.70;12.70;;;;;;;26.40;50.49;95164.81;6213321;28;109368;-74
2023/07/07 10:41:16;;;;;;;13.37;12.27;;;;;;;26.39;50.56;95161.34;6212390;28;108765;-73
2023/07/07 10:44:19;;;;;;;13.40;12.40;;;;;;;26.39;51.21;95163.25;6213670;28;112180;-73
2023/07/07 10:47:27;;;;;;;14.47;13.37;;;;;;;26.38;50.55;95156.28;6203254;28;110449;-73
2023/07/07 10:50:38;;;;;;;13.37;12.33;;;;;;;26.38;50.88;95149.06;6213007;28;109288;-64
2023/07/07 10:53:51;;;;;;;13.10;12.10;;;;;;;26.39;51.14;95141.78;6212977;28;109292;-64
2023/07/07 10:57:03;;;;;;;14.07;12.97;;;;;;;26.40;50.55;95135.31;6206317;28;110146;-67
2023/07/07 11:00:27;;;;;;;13.67;12.67;;;;;;;26.39;50.58;95133.75;6212064;28;109309;-65
2023/07/07 11:03:58;;;;;;;13.37;12.37;;;;;;;26.39;50.59;95131.06;6212373;28;109080;-64
2023/07/07 11:07:17;;;;;;;13.97;12.77;;;;;;;26.39;50.76;95123.00;6212482;28;109131;-65
2023/07/07 11:11:01;;;;;;;13.57;12.47;;;;;;;26.40;50.40;95132.63;6202244;28;109992;-64
2023/07/07 11:14:29;;;;;;;14.40;13.30;;;;;;;26.35;50.87;95130.91;6211252;28;109374;-65
2023/07/07 11:17:47;;;;;;;13.73;12.63;;;;;;;26.36;50.87;95139.75;6212518;28;109065;-65
2023/07/07 11:21:07;;;;;;;13.27;12.27;;;;;;;26.35;50.28;95163.13;6201324;28;109356;-64
2023/07/07 11:24:13;;;;;;;13.27;12.27;;;;;;;26.36;49.93;95171.94;6192718;28;109337;-65
2023/07/07 11:27:50;;;;;;;13.33;12.30;;;;;;;26.31;50.66;95172.16;6183987;28;109361;-64
2023/07/07 11:31:06;;;;;;;12.83;11.83;;;;;;;26.27;50.16;95162.09;6182682;28;109099;-64
2023/07/07 11:34:27;;;;;;;12.40;11.40;;;;;;;26.23;49.64;95171.91;6186913;28;110143;-64
2023/07/07 11:37:51;;;;;;;11.73;10.83;;;;;;;26.21;49.68;95179.50;6187913;28;109055;-64
2023/07/07 11:40:59;;;;;;;12.03;11.07;;;;;;;26.18;49.49;95164.06;6187959;28;108824;-65
2023/07/07 11:44:22;;;;;;;12.60;10.50;;;;;;;26.17;49.83;95178.56;6177433;28;109045;-65
2023/07/07 11:47:41;;;;;;;12.07;11.00;;;;;;;26.16;49.83;95186.97;6186493;28;109042;-64
2023/07/07 11:50:59;;;;;;;10.83;9.90;;;;;;;26.14;49.01;95187.28;6187250;28;109053;-65
2023/07/07 11:54:23;;;;;;;10.63;9.83;;;;;;;26.12;49.42;95189.50;6196222;28;109196;-64
2023/07/07 11:57:44;;;;;;;11.17;10.37;;;;;;;26.11;49.43;95193.31;6211329;28;109948;-64
2023/07/07 12:00:54;;;;;;;10.63;9.80;;;;;;;26.07;49.03;95183.56;6211630;28;109012;-61
2023/07/07 12:04:06;;;;;;;10.37;9.50;;;;;;;26.04;48.89;95174.25;6211418;28;108938;-62
2023/07/07 12:07:15;;;;;;;11.07;10.07;;;;;;;26.04;49.08;95189.56;6202013;28;109594;-61
2023/07/07 12:10:22;;;;;;;10.17;9.27;;;;;;;26.02;49.09;95199.84;6211847;28;109078;-61
2023/07/07 12:13:30;;;;;;;9.47;8.57;;;;;;;26.01;48.35;95200.94;6211381;28;109268;-61
2023/07/07 12:16:35;;;;;;;9.40;8.53;;;;;;;25.98;48.65;95207.72;6201401;28;109103;-66
2023/07/07 12:19:43;;;;;;;8.63;7.93;;;;;;;25.94;48.31;95206.81;6210316;28;110051;-61
2023/07/07 12:22:48;;;;;;;9.50;8.43;;;;;;;25.95;47.70;95227.16;6202976;28;109223;-61
2023/07/07 12:25:52;;;;;;;9.90;8.73;;;;;;;25.93;47.58;95245.47;6186813;28;109810;-61
2023/07/07 12:28:58;;;;;;;9.33;8.53;;;;;;;25.93;48.68;95245.47;6175559;28;109163;-61
2023/07/07 12:32:01;;;;;;;12.73;9.93;;;;;;;25.92;47.84;95246.59;6186387;28;109309;-61
2023/07/07 12:35:07;;;;;;;12.70;10.17;;;;;;;25.92;48.75;95230.50;6186449;28;109090;-62
2023/07/07 12:38:21;;;;;;;12.13;10.17;;;;;;;25.92;49.08;95233.19;6185626;28;110218;-61
2023/07/07 12:41:28;;;;;;;11.40;9.63;;;;;;;25.90;49.50;95233.50;6176292;28;108884;-61
2023/07/07 12:44:32;;;;;;;10.63;9.63;;;;;;;25.90;49.67;95227.34;6186301;28;110445;-62
2023/07/07 12:47:38;;;;;;;9.77;8.73;;;;;;;25.88;49.97;95225.00;6185961;28;109148;-62
2023/07/07 12:50:43;;;;;;;9.97;8.73;;;;;;;25.88;49.90;95227.69;6175469;28;109061;-62
2023/07/07 12:53:49;;;;;;;13.37;9.50;;;;;;;25.88;49.89;95219.66;6186344;28;108973;-62
2023/07/07 12:57:02;;;;;;;12.87;8.60;;;;;;;25.89;50.62;95225.78;6185970;28;109034;-61
2023/07/07 13:00:29;;;;;;;9.83;8.90;;;;;;;25.88;50.34;95225.00;6186546;28;112779;-62
2023/07/07 13:03:32;;;;;;;8.87;8.17;;;;;;;25.88;51.21;95210.81;6175220;28;109584;-63
2023/07/07 13:06:37;;;;;;;9.33;8.37;;;;;;;25.88;51.43;95208.13;6185960;28;110481;-61
2023/07/07 13:09:49;;;;;;;9.27;8.37;;;;;;;25.89;50.91;95204.34;6185702;28;108673;-61
2023/07/07 13:12:54;;;;;;;9.60;8.70;;;;;;;25.89;51.33;95197.09;6181734;28;108941;-62
2023/07/07 13:15:57;;;;;;;10.37;7.87;;;;;;;25.90;51.39;95198.66;6180679;28;109403;-61
2023/07/07 13:19:02;;;;;;;9.60;8.67;;;;;;;25.89;51.50;95196.28;6185604;28;108987;-61
2023/07/07 13:22:13;;;;;;;8.97;8.10;;;;;;;25.88;51.88;95186.69;6184608;28;109257;-62
2023/07/07 13:25:22;;;;;;;9.00;8.07;;;;;;;25.88;52.29;95175.97;6199583;28;109358;-61
2023/07/07 13:28:26;;;;;;;9.27;8.37;;;;;;;25.88;51.95;95170.59;6209563;28;109082;-61
2023/07/07 13:31:29;;;;;;;9.20;8.40;;;;;;;25.88;51.64;95167.91;6209840;28;109543;-61
2023/07/07 13:34:33;;;;;;;8.83;8.03;;;;;;;25.88;52.03;95175.97;6210004;28;109025;-61
2023/07/07 13:37:37;;;;;;;9.10;8.30;;;;;;;25.87;51.99;95164.41;6199645;28;109281;-62
2023/07/07 13:40:40;;;;;;;9.77;8.97;;;;;;;25.88;51.88;95160.66;6209673;28;109023;-61
2023/07/07 13:43:47;;;;;;;11.00;8.47;;;;;;;25.89;52.04;95156.06;6210027;28;109548;-64
2023/07/07 13:47:02;;;;;;;9.00;8.20;;;;;;;25.88;51.92;95157.97;6205064;28;109134;-61
2023/07/07 13:50:08;;;;;;;8.30;7.60;;;;;;;25.89;52.27;95146.13;6208627;28;109264;-61
2023/07/07 13:53:12;;;;;;;10.13;9.23;;;;;;;25.90;51.86;95144.25;6208705;28;109525;-61
2023/07/07 13:56:15;;;;;;;9.53;8.63;;;;;;;25.89;52.52;95148.03;6188879;28;109127;-61
2023/07/07 13:59:23;;;;;;;10.03;9.00;;;;;;;25.90;52.34;95150.38;6177894;28;109044;-61
2023/07/07 14:02:27;;;;;;;10.27;9.47;;;;;;;25.90;52.73;95141.56;6188784;28;109019;-61
2023/07/07 14:05:33;;;;;;;10.20;9.30;;;;;;;25.90;52.18;95138.88;6188299;28;109217;-60
2023/07/07 14:08:36;;;;;;;10.53;9.63;;;;;;;25.91;52.41;95133.19;6188892;28;110135;-61
2023/07/07 14:11:39;;;;;;;10.53;9.63;;;;;;;25.92;52.31;95142.00;6178321;28;109180;-61
2023/07/07 14:14:59;;;;;;;10.80;9.40;;;;;;;25.91;52.21;95137.75;6189018;28;109399;-61
2023/07/07 14:18:05;;;;;;;10.20;9.30;;;;;;;25.92;51.91;95139.31;6188653;28;109081;-61